Terminal Aerodrome Forecast
Issued by NWS

Home | Current Version | Previous Version | Text Only | Print | Product List | Glossary On
Versions: 1 2 3 4 5 6 7 8 9 10 11 12 13 14 15 16
000
FTUS43 KAPX 012300
TAFMBL
TAF
KMBL 012320Z 0200/0224 25007KT P6SM SHRA BKN030 BKN050
     FM020200 25006KT P6SM OVC030
     FM021400 30008KT P6SM BKN040
      AMD LTD TO CLD VIS AND WIND=

USA.gov is the U.S. government's official web portal to all federal, state and local government web resources and services.